Duffau, Texas
Current Conditions -  °F | °C
As of 6:55 PM on Friday 24 Oct 2014 (Local Time) from KSEP Reporting Station
Clear Clear  
Wind Chill: 79°   Ceiling: Unl
Heat Index: 80°   Visibility: 10mi
Dew Point: 58°   Wind: 0mph
Humidity: 48%   Direction: NA
Pressure: 30.11"   Gusts: NA
Location:  31.981°N, 98.033°W
Report Text: KSEP 242355Z AUTO 00000KT 10SM CLR 26/14 A3011 RMK AO2 T02610144 10291 20261
Loading
Personal Weather Stations






























Interactive Weather Map
Tropical Storm Tracking
New forecast layout! Learn more

10-Day Weather Forecast

Advertisements
Track Severe Weather on mobile